sensor_id;sensor_type;location;lat;lon;timestamp;temperature;humidity
50738;DHT22;36703;48.154;17.126;2023-11-21T00:02:33;14.60;54.50
50738;DHT22;36703;48.154;17.126;2023-11-21T00:06:34;14.50;54.40
50738;DHT22;36703;48.154;17.126;2023-11-21T00:10:36;14.50;54.50
50738;DHT22;36703;48.154;17.126;2023-11-21T00:14:39;14.60;54.40
50738;DHT22;36703;48.154;17.126;2023-11-21T00:18:41;14.50;54.30
50738;DHT22;36703;48.154;17.126;2023-11-21T00:22:43;14.50;54.30
50738;DHT22;36703;48.154;17.126;2023-11-21T00:26:46;14.50;54.30
50738;DHT22;36703;48.154;17.126;2023-11-21T00:30:50;14.40;54.30
50738;DHT22;36703;48.154;17.126;2023-11-21T00:34:51;14.50;54.40
50738;DHT22;36703;48.154;17.126;2023-11-21T00:38:53;14.50;54.30
50738;DHT22;36703;48.154;17.126;2023-11-21T00:42:54;14.40;54.30
50738;DHT22;36703;48.154;17.126;2023-11-21T00:46:57;14.50;54.90
50738;DHT22;36703;48.154;17.126;2023-11-21T00:50:58;14.50;54.20
50738;DHT22;36703;48.154;17.126;2023-11-21T00:55:00;14.50;54.70
50738;DHT22;36703;48.154;17.126;2023-11-21T00:59:02;14.50;54.10
50738;DHT22;36703;48.154;17.126;2023-11-21T01:03:06;14.50;54.00
50738;DHT22;36703;48.154;17.126;2023-11-21T01:07:09;14.50;54.10
50738;DHT22;36703;48.154;17.126;2023-11-21T01:11:11;14.40;54.00
50738;DHT22;36703;48.154;17.126;2023-11-21T01:15:13;14.40;54.10
50738;DHT22;36703;48.154;17.126;2023-11-21T01:19:15;14.30;54.20
50738;DHT22;36703;48.154;17.126;2023-11-21T01:23:16;14.30;54.30
50738;DHT22;36703;48.154;17.126;2023-11-21T01:27:19;14.30;54.20
50738;DHT22;36703;48.154;17.126;2023-11-21T01:31:20;14.30;54.30
50738;DHT22;36703;48.154;17.126;2023-11-21T01:35:22;14.30;54.20
50738;DHT22;36703;48.154;17.126;2023-11-21T01:39:28;14.30;54.30
50738;DHT22;36703;48.154;17.126;2023-11-21T01:43:29;14.30;54.30
50738;DHT22;36703;48.154;17.126;2023-11-21T01:47:33;14.20;54.30
50738;DHT22;36703;48.154;17.126;2023-11-21T01:51:36;14.30;54.40
50738;DHT22;36703;48.154;17.126;2023-11-21T01:55:40;14.20;54.30
50738;DHT22;36703;48.154;17.126;2023-11-21T01:59:44;14.30;54.40
50738;DHT22;36703;48.154;17.126;2023-11-21T02:03:46;14.20;54.30
50738;DHT22;36703;48.154;17.126;2023-11-21T02:07:48;14.20;54.30
50738;DHT22;36703;48.154;17.126;2023-11-21T02:11:50;14.10;54.40
50738;DHT22;36703;48.154;17.126;2023-11-21T02:15:52;14.20;54.40
50738;DHT22;36703;48.154;17.126;2023-11-21T02:19:55;14.10;54.40
50738;DHT22;36703;48.154;17.126;2023-11-21T02:23:57;14.10;54.40
50738;DHT22;36703;48.154;17.126;2023-11-21T02:28:00;14.10;54.30
50738;DHT22;36703;48.154;17.126;2023-11-21T02:32:03;14.10;54.30
50738;DHT22;36703;48.154;17.126;2023-11-21T02:36:05;14.10;54.30
50738;DHT22;36703;48.154;17.126;2023-11-21T02:40:08;14.10;54.40
50738;DHT22;36703;48.154;17.126;2023-11-21T02:44:11;14.10;54.40
50738;DHT22;36703;48.154;17.126;2023-11-21T02:48:12;14.10;54.60
50738;DHT22;36703;48.154;17.126;2023-11-21T02:52:14;14.00;54.70
50738;DHT22;36703;48.154;17.126;2023-11-21T02:56:16;14.00;54.70
50738;DHT22;36703;48.154;17.126;2023-11-21T03:00:17;13.90;54.80
50738;DHT22;36703;48.154;17.126;2023-11-21T03:04:19;13.90;54.80
50738;DHT22;36703;48.154;17.126;2023-11-21T03:08:22;13.90;55.00
50738;DHT22;36703;48.154;17.126;2023-11-21T03:12:23;13.90;55.00
50738;DHT22;36703;48.154;17.126;2023-11-21T03:16:25;13.90;54.90
50738;DHT22;36703;48.154;17.126;2023-11-21T03:20:27;13.90;54.80
50738;DHT22;36703;48.154;17.126;2023-11-21T03:24:28;13.90;54.90
50738;DHT22;36703;48.154;17.126;2023-11-21T03:28:31;13.90;54.80
50738;DHT22;36703;48.154;17.126;2023-11-21T03:32:33;13.90;54.80
50738;DHT22;36703;48.154;17.126;2023-11-21T03:36:35;13.90;54.80
50738;DHT22;36703;48.154;17.126;2023-11-21T03:40:37;13.90;54.90
50738;DHT22;36703;48.154;17.126;2023-11-21T03:44:40;13.80;54.90
50738;DHT22;36703;48.154;17.126;2023-11-21T03:48:42;13.90;55.10
50738;DHT22;36703;48.154;17.126;2023-11-21T03:52:43;13.80;55.10
50738;DHT22;36703;48.154;17.126;2023-11-21T03:56:45;13.70;55.20
50738;DHT22;36703;48.154;17.126;2023-11-21T04:00:47;13.70;55.30
50738;DHT22;36703;48.154;17.126;2023-11-21T04:04:51;13.70;55.30
50738;DHT22;36703;48.154;17.126;2023-11-21T04:08:53;13.60;55.40
50738;DHT22;36703;48.154;17.126;2023-11-21T04:12:55;13.60;55.50
50738;DHT22;36703;48.154;17.126;2023-11-21T04:16:56;13.60;55.60
50738;DHT22;36703;48.154;17.126;2023-11-21T04:20:58;13.60;55.60
50738;DHT22;36703;48.154;17.126;2023-11-21T04:24:59;13.50;55.60
50738;DHT22;36703;48.154;17.126;2023-11-21T04:29:01;13.50;55.70
50738;DHT22;36703;48.154;17.126;2023-11-21T04:33:03;13.50;55.60
50738;DHT22;36703;48.154;17.126;2023-11-21T04:37:05;13.50;55.70
50738;DHT22;36703;48.154;17.126;2023-11-21T04:41:08;13.40;55.60
50738;DHT22;36703;48.154;17.126;2023-11-21T04:45:09;13.40;56.20
50738;DHT22;36703;48.154;17.126;2023-11-21T04:49:12;13.40;55.60
50738;DHT22;36703;48.154;17.126;2023-11-21T04:53:14;13.40;55.70
50738;DHT22;36703;48.154;17.126;2023-11-21T04:57:15;13.40;55.80
50738;DHT22;36703;48.154;17.126;2023-11-21T05:01:19;13.40;55.80
50738;DHT22;36703;48.154;17.126;2023-11-21T05:05:20;13.40;55.70
50738;DHT22;36703;48.154;17.126;2023-11-21T05:09:22;13.50;55.80
50738;DHT22;36703;48.154;17.126;2023-11-21T05:13:23;13.40;55.70
50738;DHT22;36703;48.154;17.126;2023-11-21T05:17:28;13.30;55.70
50738;DHT22;36703;48.154;17.126;2023-11-21T05:21:30;13.30;55.90
50738;DHT22;36703;48.154;17.126;2023-11-21T05:25:34;13.20;55.90
50738;DHT22;36703;48.154;17.126;2023-11-21T05:29:39;13.10;56.00
50738;DHT22;36703;48.154;17.126;2023-11-21T05:33:41;13.10;56.20
50738;DHT22;36703;48.154;17.126;2023-11-21T05:37:42;13.00;56.20
50738;DHT22;36703;48.154;17.126;2023-11-21T05:41:44;13.00;56.30
50738;DHT22;36703;48.154;17.126;2023-11-21T05:45:46;13.00;56.30
50738;DHT22;36703;48.154;17.126;2023-11-21T05:49:47;13.00;56.30
50738;DHT22;36703;48.154;17.126;2023-11-21T05:53:52;12.90;56.30
50738;DHT22;36703;48.154;17.126;2023-11-21T05:57:53;12.90;56.50
50738;DHT22;36703;48.154;17.126;2023-11-21T06:01:55;12.80;56.70
50738;DHT22;36703;48.154;17.126;2023-11-21T06:05:56;12.70;56.80
50738;DHT22;36703;48.154;17.126;2023-11-21T06:09:58;12.70;56.90
50738;DHT22;36703;48.154;17.126;2023-11-21T06:13:59;12.70;57.00
50738;DHT22;36703;48.154;17.126;2023-11-21T06:18:01;12.60;56.80
50738;DHT22;36703;48.154;17.126;2023-11-21T06:22:02;12.50;57.90
50738;DHT22;36703;48.154;17.126;2023-11-21T06:26:07;12.30;58.00
50738;DHT22;36703;48.154;17.126;2023-11-21T06:30:11;12.30;58.20
50738;DHT22;36703;48.154;17.126;2023-11-21T06:34:14;12.30;58.60
50738;DHT22;36703;48.154;17.126;2023-11-21T06:38:16;12.30;58.60
50738;DHT22;36703;48.154;17.126;2023-11-21T06:42:18;12.30;58.70
50738;DHT22;36703;48.154;17.126;2023-11-21T06:46:22;12.20;58.70
50738;DHT22;36703;48.154;17.126;2023-11-21T06:50:24;12.30;59.30
50738;DHT22;36703;48.154;17.126;2023-11-21T06:54:26;12.20;59.90
50738;DHT22;36703;48.154;17.126;2023-11-21T06:58:28;12.30;61.60
50738;DHT22;36703;48.154;17.126;2023-11-21T07:02:30;12.00;61.30
50738;DHT22;36703;48.154;17.126;2023-11-21T07:06:31;12.00;61.20
50738;DHT22;36703;48.154;17.126;2023-11-21T07:10:33;12.10;62.00
50738;DHT22;36703;48.154;17.126;2023-11-21T07:14:36;12.00;61.00
50738;DHT22;36703;48.154;17.126;2023-11-21T07:18:40;12.00;60.90
50738;DHT22;36703;48.154;17.126;2023-11-21T07:22:41;12.10;61.10
50738;DHT22;36703;48.154;17.126;2023-11-21T07:26:43;12.20;61.20
50738;DHT22;36703;48.154;17.126;2023-11-21T07:30:44;12.20;61.10
50738;DHT22;36703;48.154;17.126;2023-11-21T07:34:46;12.40;60.80
50738;DHT22;36703;48.154;17.126;2023-11-21T07:38:47;12.40;60.60
50738;DHT22;36703;48.154;17.126;2023-11-21T07:42:49;12.50;60.40
50738;DHT22;36703;48.154;17.126;2023-11-21T07:46:52;12.50;60.20
50738;DHT22;36703;48.154;17.126;2023-11-21T07:50:53;12.60;60.40
50738;DHT22;36703;48.154;17.126;2023-11-21T07:54:55;12.60;60.20
50738;DHT22;36703;48.154;17.126;2023-11-21T07:58:57;12.70;60.10
50738;DHT22;36703;48.154;17.126;2023-11-21T08:02:58;12.70;60.10
50738;DHT22;36703;48.154;17.126;2023-11-21T08:07:00;12.70;60.30
50738;DHT22;36703;48.154;17.126;2023-11-21T08:11:02;12.80;60.30
50738;DHT22;36703;48.154;17.126;2023-11-21T08:15:05;12.80;60.30
50738;DHT22;36703;48.154;17.126;2023-11-21T08:19:07;12.90;60.40
50738;DHT22;36703;48.154;17.126;2023-11-21T08:23:10;12.90;60.70
50738;DHT22;36703;48.154;17.126;2023-11-21T08:27:12;12.80;60.90
50738;DHT22;36703;48.154;17.126;2023-11-21T08:31:17;12.80;60.80
50738;DHT22;36703;48.154;17.126;2023-11-21T08:35:18;13.00;61.00
50738;DHT22;36703;48.154;17.126;2023-11-21T08:39:20;12.90;61.00
50738;DHT22;36703;48.154;17.126;2023-11-21T08:43:21;13.00;61.00
50738;DHT22;36703;48.154;17.126;2023-11-21T08:47:23;13.10;61.00
50738;DHT22;36703;48.154;17.126;2023-11-21T08:51:25;13.20;61.50
50738;DHT22;36703;48.154;17.126;2023-11-21T08:55:27;13.30;60.90
50738;DHT22;36703;48.154;17.126;2023-11-21T08:59:29;13.40;60.80
50738;DHT22;36703;48.154;17.126;2023-11-21T09:03:31;13.50;60.80
50738;DHT22;36703;48.154;17.126;2023-11-21T09:07:35;13.50;60.70
50738;DHT22;36703;48.154;17.126;2023-11-21T09:11:37;13.70;60.70
50738;DHT22;36703;48.154;17.126;2023-11-21T09:15:39;13.80;60.80
50738;DHT22;36703;48.154;17.126;2023-11-21T09:19:41;13.90;60.60
50738;DHT22;36703;48.154;17.126;2023-11-21T09:23:46;14.10;60.40
50738;DHT22;36703;48.154;17.126;2023-11-21T09:27:47;14.30;60.00
50738;DHT22;36703;48.154;17.126;2023-11-21T09:31:49;14.20;60.00
50738;DHT22;36703;48.154;17.126;2023-11-21T09:35:53;14.30;60.10
50738;DHT22;36703;48.154;17.126;2023-11-21T09:39:55;14.20;60.40
50738;DHT22;36703;48.154;17.126;2023-11-21T09:43:57;14.20;60.40
50738;DHT22;36703;48.154;17.126;2023-11-21T09:48:02;14.30;60.40
50738;DHT22;36703;48.154;17.126;2023-11-21T09:52:04;14.50;60.40
50738;DHT22;36703;48.154;17.126;2023-11-21T09:56:07;14.70;60.20
50738;DHT22;36703;48.154;17.126;2023-11-21T10:00:11;14.90;59.90
50738;DHT22;36703;48.154;17.126;2023-11-21T10:04:18;15.10;59.60
50738;DHT22;36703;48.154;17.126;2023-11-21T10:08:22;15.20;59.60
50738;DHT22;36703;48.154;17.126;2023-11-21T10:12:26;15.20;59.10
50738;DHT22;36703;48.154;17.126;2023-11-21T10:16:29;15.30;58.90
50738;DHT22;36703;48.154;17.126;2023-11-21T10:20:32;15.20;58.80
50738;DHT22;36703;48.154;17.126;2023-11-21T10:24:39;15.30;58.60
50738;DHT22;36703;48.154;17.126;2023-11-21T10:28:40;15.30;58.60
50738;DHT22;36703;48.154;17.126;2023-11-21T10:32:42;15.40;58.50
50738;DHT22;36703;48.154;17.126;2023-11-21T10:36:44;15.40;58.30
50738;DHT22;36703;48.154;17.126;2023-11-21T10:40:46;15.40;58.20
50738;DHT22;36703;48.154;17.126;2023-11-21T10:44:48;15.50;58.20
50738;DHT22;36703;48.154;17.126;2023-11-21T10:48:53;15.70;58.20
50738;DHT22;36703;48.154;17.126;2023-11-21T10:52:58;16.40;56.70
50738;DHT22;36703;48.154;17.126;2023-11-21T10:57:00;17.20;58.50
50738;DHT22;36703;48.154;17.126;2023-11-21T11:01:05;17.80;57.30
50738;DHT22;36703;48.154;17.126;2023-11-21T11:13:15;19.30;78.50
50738;DHT22;36703;48.154;17.126;2023-11-21T11:17:19;19.70;51.90
50738;DHT22;36703;48.154;17.126;2023-11-21T11:21:32;19.90;52.40
50738;DHT22;36703;48.154;17.126;2023-11-21T11:35:17;19.80;51.00
50738;DHT22;36703;48.154;17.126;2023-11-21T11:39:36;20.20;50.60
50738;DHT22;36703;48.154;17.126;2023-11-21T11:43:39;20.50;48.50
50738;DHT22;36703;48.154;17.126;2023-11-21T11:47:47;20.80;51.10
50738;DHT22;36703;48.154;17.126;2023-11-21T11:56:47;21.30;46.80
50738;DHT22;36703;48.154;17.126;2023-11-21T12:00:50;21.60;44.80
50738;DHT22;36703;48.154;17.126;2023-11-21T12:04:56;21.70;44.40
50738;DHT22;36703;48.154;17.126;2023-11-21T12:09:01;21.60;43.90
50738;DHT22;36703;48.154;17.126;2023-11-21T12:13:07;21.60;43.90
50738;DHT22;36703;48.154;17.126;2023-11-21T12:17:11;21.70;43.80
50738;DHT22;36703;48.154;17.126;2023-11-21T12:21:13;21.80;43.90
50738;DHT22;36703;48.154;17.126;2023-11-21T12:25:19;22.00;43.90
50738;DHT22;36703;48.154;17.126;2023-11-21T12:29:25;22.10;43.40
50738;DHT22;36703;48.154;17.126;2023-11-21T12:33:30;22.10;42.90
50738;DHT22;36703;48.154;17.126;2023-11-21T12:37:32;22.20;42.80
50738;DHT22;36703;48.154;17.126;2023-11-21T12:41:34;22.00;42.50
50738;DHT22;36703;48.154;17.126;2023-11-21T12:45:36;21.50;42.80
50738;DHT22;36703;48.154;17.126;2023-11-21T12:49:39;20.80;43.20
50738;DHT22;36703;48.154;17.126;2023-11-21T12:53:41;20.40;43.80
50738;DHT22;36703;48.154;17.126;2023-11-21T12:57:45;20.00;44.20
50738;DHT22;36703;48.154;17.126;2023-11-21T13:01:47;19.60;44.70
50738;DHT22;36703;48.154;17.126;2023-11-21T13:05:49;19.30;45.30
50738;DHT22;36703;48.154;17.126;2023-11-21T13:09:52;19.00;45.60
50738;DHT22;36703;48.154;17.126;2023-11-21T13:13:54;18.80;46.10
50738;DHT22;36703;48.154;17.126;2023-11-21T13:17:58;18.60;46.50
50738;DHT22;36703;48.154;17.126;2023-11-21T13:21:59;18.40;46.60
50738;DHT22;36703;48.154;17.126;2023-11-21T13:26:05;18.30;46.90
50738;DHT22;36703;48.154;17.126;2023-11-21T13:30:07;18.20;47.10
50738;DHT22;36703;48.154;17.126;2023-11-21T13:34:09;18.10;47.30
50738;DHT22;36703;48.154;17.126;2023-11-21T13:38:16;18.20;47.40
50738;DHT22;36703;48.154;17.126;2023-11-21T13:42:19;18.20;47.50
50738;DHT22;36703;48.154;17.126;2023-11-21T13:46:23;18.10;47.70
50738;DHT22;36703;48.154;17.126;2023-11-21T13:50:28;18.00;48.00
50738;DHT22;36703;48.154;17.126;2023-11-21T13:54:36;17.90;48.10
50738;DHT22;36703;48.154;17.126;2023-11-21T13:58:39;17.80;48.30
50738;DHT22;36703;48.154;17.126;2023-11-21T14:02:52;17.70;48.60
50738;DHT22;36703;48.154;17.126;2023-11-21T14:06:54;17.60;49.00
50738;DHT22;36703;48.154;17.126;2023-11-21T14:10:55;17.40;49.70
50738;DHT22;36703;48.154;17.126;2023-11-21T14:14:58;17.40;50.10
50738;DHT22;36703;48.154;17.126;2023-11-21T14:19:00;17.30;50.30
50738;DHT22;36703;48.154;17.126;2023-11-21T14:23:10;17.30;49.80
50738;DHT22;36703;48.154;17.126;2023-11-21T14:27:13;17.30;50.50
50738;DHT22;36703;48.154;17.126;2023-11-21T14:31:16;17.20;50.50
50738;DHT22;36703;48.154;17.126;2023-11-21T14:35:18;17.20;50.60
50738;DHT22;36703;48.154;17.126;2023-11-21T14:39:20;17.20;50.70
50738;DHT22;36703;48.154;17.126;2023-11-21T14:43:24;17.10;50.80
50738;DHT22;36703;48.154;17.126;2023-11-21T14:47:26;17.10;51.30
50738;DHT22;36703;48.154;17.126;2023-11-21T14:51:28;17.10;51.60
50738;DHT22;36703;48.154;17.126;2023-11-21T14:55:33;17.10;51.80
50738;DHT22;36703;48.154;17.126;2023-11-21T14:59:53;17.00;52.10
50738;DHT22;36703;48.154;17.126;2023-11-21T15:03:59;17.00;53.30
50738;DHT22;36703;48.154;17.126;2023-11-21T15:08:00;16.90;53.50
50738;DHT22;36703;48.154;17.126;2023-11-21T15:12:31;16.80;55.70
50738;DHT22;36703;48.154;17.126;2023-11-21T15:16:35;16.70;57.70
50738;DHT22;36703;48.154;17.126;2023-11-21T15:20:44;16.60;59.10
50738;DHT22;36703;48.154;17.126;2023-11-21T15:24:45;16.50;56.20
50738;DHT22;36703;48.154;17.126;2023-11-21T15:28:50;16.40;56.20
50738;DHT22;36703;48.154;17.126;2023-11-21T15:32:52;16.30;55.70
50738;DHT22;36703;48.154;17.126;2023-11-21T15:36:54;16.30;55.90
50738;DHT22;36703;48.154;17.126;2023-11-21T15:40:56;16.20;56.90
50738;DHT22;36703;48.154;17.126;2023-11-21T15:44:59;16.20;56.30
50738;DHT22;36703;48.154;17.126;2023-11-21T15:49:01;16.20;56.00
50738;DHT22;36703;48.154;17.126;2023-11-21T15:53:05;16.20;55.80
50738;DHT22;36703;48.154;17.126;2023-11-21T15:57:07;16.10;55.90
50738;DHT22;36703;48.154;17.126;2023-11-21T16:01:10;16.10;55.80
50738;DHT22;36703;48.154;17.126;2023-11-21T16:05:14;16.00;55.90
50738;DHT22;36703;48.154;17.126;2023-11-21T16:09:15;16.00;65.80
50738;DHT22;36703;48.154;17.126;2023-11-21T16:13:23;15.80;56.70
50738;DHT22;36703;48.154;17.126;2023-11-21T16:17:25;15.70;64.90
50738;DHT22;36703;48.154;17.126;2023-11-21T16:21:27;15.60;60.40
50738;DHT22;36703;48.154;17.126;2023-11-21T16:25:29;15.50;59.10
50738;DHT22;36703;48.154;17.126;2023-11-21T16:29:32;15.50;60.20
50738;DHT22;36703;48.154;17.126;2023-11-21T16:33:34;15.40;59.40
50738;DHT22;36703;48.154;17.126;2023-11-21T16:37:36;15.50;59.50
50738;DHT22;36703;48.154;17.126;2023-11-21T16:41:41;15.40;59.50
50738;DHT22;36703;48.154;17.126;2023-11-21T16:45:43;15.40;59.90
50738;DHT22;36703;48.154;17.126;2023-11-21T16:49:50;15.40;59.60
50738;DHT22;36703;48.154;17.126;2023-11-21T16:53:52;15.40;58.40
50738;DHT22;36703;48.154;17.126;2023-11-21T16:57:54;15.40;59.20
50738;DHT22;36703;48.154;17.126;2023-11-21T17:01:55;15.40;59.10
50738;DHT22;36703;48.154;17.126;2023-11-21T17:05:58;15.40;58.90
50738;DHT22;36703;48.154;17.126;2023-11-21T17:09:59;15.40;59.00
50738;DHT22;36703;48.154;17.126;2023-11-21T17:14:01;15.40;59.10
50738;DHT22;36703;48.154;17.126;2023-11-21T17:18:03;15.40;59.20
50738;DHT22;36703;48.154;17.126;2023-11-21T17:22:07;15.30;59.00
50738;DHT22;36703;48.154;17.126;2023-11-21T17:26:08;15.20;59.60
50738;DHT22;36703;48.154;17.126;2023-11-21T17:30:10;15.20;58.30
50738;DHT22;36703;48.154;17.126;2023-11-21T17:34:12;15.20;57.80
50738;DHT22;36703;48.154;17.126;2023-11-21T17:38:14;15.20;57.50
50738;DHT22;36703;48.154;17.126;2023-11-21T17:42:16;15.20;57.20
50738;DHT22;36703;48.154;17.126;2023-11-21T17:46:21;15.20;57.00
50738;DHT22;36703;48.154;17.126;2023-11-21T17:50:23;15.20;56.80
50738;DHT22;36703;48.154;17.126;2023-11-21T17:54:25;15.10;56.90
50738;DHT22;36703;48.154;17.126;2023-11-21T17:58:26;15.10;60.40
50738;DHT22;36703;48.154;17.126;2023-11-21T18:02:29;15.00;75.50
50738;DHT22;36703;48.154;17.126;2023-11-21T18:06:33;15.00;66.60
50738;DHT22;36703;48.154;17.126;2023-11-21T18:10:34;15.00;64.60
50738;DHT22;36703;48.154;17.126;2023-11-21T18:14:36;15.00;61.80
50738;DHT22;36703;48.154;17.126;2023-11-21T18:18:39;15.00;61.20
50738;DHT22;36703;48.154;17.126;2023-11-21T18:22:40;15.10;61.00
50738;DHT22;36703;48.154;17.126;2023-11-21T18:26:42;15.00;61.00
50738;DHT22;36703;48.154;17.126;2023-11-21T18:30:43;15.00;60.90
50738;DHT22;36703;48.154;17.126;2023-11-21T18:34:45;15.00;60.70
50738;DHT22;36703;48.154;17.126;2023-11-21T18:38:47;15.00;60.60
50738;DHT22;36703;48.154;17.126;2023-11-21T18:42:48;15.00;60.90
50738;DHT22;36703;48.154;17.126;2023-11-21T18:46:50;15.10;61.30
50738;DHT22;36703;48.154;17.126;2023-11-21T18:50:52;15.10;61.70
50738;DHT22;36703;48.154;17.126;2023-11-21T18:54:55;15.20;61.80
50738;DHT22;36703;48.154;17.126;2023-11-21T18:58:58;15.30;61.60
50738;DHT22;36703;48.154;17.126;2023-11-21T19:03:00;15.30;61.60
50738;DHT22;36703;48.154;17.126;2023-11-21T19:07:01;15.20;61.60
50738;DHT22;36703;48.154;17.126;2023-11-21T19:11:03;15.20;61.50
50738;DHT22;36703;48.154;17.126;2023-11-21T19:15:06;15.10;61.40
50738;DHT22;36703;48.154;17.126;2023-11-21T19:19:15;15.00;61.50
50738;DHT22;36703;48.154;17.126;2023-11-21T19:23:18;14.90;61.50
50738;DHT22;36703;48.154;17.126;2023-11-21T19:31:22;14.70;84.40
50738;DHT22;36703;48.154;17.126;2023-11-21T19:35:24;14.70;81.30
50738;DHT22;36703;48.154;17.126;2023-11-21T19:39:26;14.70;68.30
50738;DHT22;36703;48.154;17.126;2023-11-21T19:43:28;14.70;62.60
50738;DHT22;36703;48.154;17.126;2023-11-21T20:32:00;14.50;87.00
50738;DHT22;36703;48.154;17.126;2023-11-21T20:36:03;14.40;72.40
50738;DHT22;36703;48.154;17.126;2023-11-21T20:40:06;14.30;74.20
50738;DHT22;36703;48.154;17.126;2023-11-21T20:44:09;14.20;68.90
50738;DHT22;36703;48.154;17.126;2023-11-21T20:48:11;14.20;80.60
50738;DHT22;36703;48.154;17.126;2023-11-21T20:52:14;14.10;72.10
50738;DHT22;36703;48.154;17.126;2023-11-21T20:56:15;14.20;73.00
50738;DHT22;36703;48.154;17.126;2023-11-21T21:00:17;14.10;75.40
50738;DHT22;36703;48.154;17.126;2023-11-21T21:04:20;14.10;77.20
50738;DHT22;36703;48.154;17.126;2023-11-21T21:08:22;14.00;77.50
50738;DHT22;36703;48.154;17.126;2023-11-21T21:12:27;14.10;77.20
50738;DHT22;36703;48.154;17.126;2023-11-21T21:16:29;14.10;77.30
50738;DHT22;36703;48.154;17.126;2023-11-21T21:20:35;14.00;76.10
50738;DHT22;36703;48.154;17.126;2023-11-21T21:24:37;14.30;78.40
50738;DHT22;36703;48.154;17.126;2023-11-21T21:28:39;14.00;78.90
50738;DHT22;36703;48.154;17.126;2023-11-21T21:32:41;14.00;77.60
50738;DHT22;36703;48.154;17.126;2023-11-21T21:36:43;14.00;76.30
50738;DHT22;36703;48.154;17.126;2023-11-21T21:40:45;13.90;64.90
50738;DHT22;36703;48.154;17.126;2023-11-21T21:44:47;13.90;69.70
50738;DHT22;36703;48.154;17.126;2023-11-21T21:48:49;13.80;76.00
50738;DHT22;36703;48.154;17.126;2023-11-21T21:52:50;13.80;78.20
50738;DHT22;36703;48.154;17.126;2023-11-21T21:56:52;13.80;77.50
50738;DHT22;36703;48.154;17.126;2023-11-21T22:00:54;13.80;76.80
50738;DHT22;36703;48.154;17.126;2023-11-21T22:04:55;13.70;75.80
50738;DHT22;36703;48.154;17.126;2023-11-21T22:08:57;13.70;74.60
50738;DHT22;36703;48.154;17.126;2023-11-21T22:13:01;13.60;60.80
50738;DHT22;36703;48.154;17.126;2023-11-21T22:17:02;13.40;64.60
50738;DHT22;36703;48.154;17.126;2023-11-21T22:21:04;13.30;71.70
50738;DHT22;36703;48.154;17.126;2023-11-21T22:25:07;13.20;66.20
50738;DHT22;36703;48.154;17.126;2023-11-21T22:29:09;13.10;76.90
50738;DHT22;36703;48.154;17.126;2023-11-21T22:33:11;13.00;66.10
50738;DHT22;36703;48.154;17.126;2023-11-21T22:37:13;13.00;75.60
50738;DHT22;36703;48.154;17.126;2023-11-21T22:41:26;12.90;85.80
50738;DHT22;36703;48.154;17.126;2023-11-21T22:45:27;12.80;87.30
50738;DHT22;36703;48.154;17.126;2023-11-21T22:49:29;12.80;85.80
50738;DHT22;36703;48.154;17.126;2023-11-21T22:53:31;12.80;86.10
50738;DHT22;36703;48.154;17.126;2023-11-21T22:57:32;12.80;86.10
50738;DHT22;36703;48.154;17.126;2023-11-21T23:01:34;12.70;87.90
50738;DHT22;36703;48.154;17.126;2023-11-21T23:05:35;12.70;84.00
50738;DHT22;36703;48.154;17.126;2023-11-21T23:09:37;12.70;81.00
50738;DHT22;36703;48.154;17.126;2023-11-21T23:13:39;12.70;79.30
50738;DHT22;36703;48.154;17.126;2023-11-21T23:17:41;12.70;78.40
50738;DHT22;36703;48.154;17.126;2023-11-21T23:21:43;12.70;78.50
50738;DHT22;36703;48.154;17.126;2023-11-21T23:25:44;12.70;78.20
50738;DHT22;36703;48.154;17.126;2023-11-21T23:29:47;12.60;77.10
50738;DHT22;36703;48.154;17.126;2023-11-21T23:33:54;12.60;77.50
50738;DHT22;36703;48.154;17.126;2023-11-21T23:37:56;12.70;76.90
50738;DHT22;36703;48.154;17.126;2023-11-21T23:41:57;12.60;77.20
50738;DHT22;36703;48.154;17.126;2023-11-21T23:45:59;12.60;76.80
50738;DHT22;36703;48.154;17.126;2023-11-21T23:50:00;12.60;76.80
50738;DHT22;36703;48.154;17.126;2023-11-21T23:54:05;12.70;77.00
50738;DHT22;36703;48.154;17.126;2023-11-21T23:58:07;12.60;77.70
